createdAt,value
2023-04-01T00:01:29.005Z,12.68
2023-04-01T00:03:57.354Z,12.54
2023-04-01T00:06:24.969Z,12.79
2023-04-01T00:08:52.037Z,12.86
2023-04-01T00:11:20.571Z,12.80
2023-04-01T00:13:48.252Z,12.36
2023-04-01T00:16:21.884Z,12.43
2023-04-01T00:18:51.197Z,12.12
2023-04-01T00:21:18.758Z,12.11
2023-04-01T00:23:45.745Z,12.14
2023-04-01T00:26:13.543Z,11.97
2023-04-01T00:28:41.315Z,12.40
2023-04-01T00:31:09.283Z,12.45
2023-04-01T00:33:36.821Z,12.36
2023-04-01T00:36:14.385Z,12.71
2023-04-01T00:38:42.878Z,13.28
2023-04-01T00:41:15.293Z,13.06
2023-04-01T00:43:48.442Z,13.55
2023-04-01T00:46:15.641Z,13.89
2023-04-01T00:48:52.727Z,13.88
2023-04-01T00:51:30.234Z,14.44
2023-04-01T00:53:59.455Z,14.37
2023-04-01T00:56:29.509Z,14.53
2023-04-01T00:59:00.753Z,14.43
2023-04-01T01:01:27.921Z,13.99
2023-04-01T01:03:55.060Z,13.50
2023-04-01T01:06:40.181Z,13.27
2023-04-01T01:09:10.497Z,13.22
2023-04-01T01:11:51.299Z,12.89
2023-04-01T01:14:32.271Z,13.11
2023-04-01T01:18:00.994Z,13.37
2023-04-01T01:20:48.095Z,13.22
2023-04-01T01:23:40.909Z,13.34
2023-04-01T01:26:27.555Z,13.56
2023-04-01T01:28:54.377Z,12.74
2023-04-01T01:31:30.157Z,12.98
2023-04-01T01:34:21.098Z,13.08
2023-04-01T01:36:51.254Z,12.34
2023-04-01T01:39:18.774Z,13.00
2023-04-01T01:41:47.993Z,13.78
2023-04-01T01:44:16.627Z,14.22
2023-04-01T01:46:45.164Z,13.97
2023-04-01T01:49:13.596Z,14.43
2023-04-01T01:51:41.047Z,14.18
2023-04-01T01:54:07.926Z,14.29
2023-04-01T01:56:36.651Z,13.76
2023-04-01T01:59:08.890Z,14.15
2023-04-01T02:01:38.622Z,14.61
2023-04-01T02:04:06.071Z,14.52
2023-04-01T02:06:36.324Z,14.00
2023-04-01T02:09:05.572Z,14.55
2023-04-01T02:11:37.981Z,13.25
2023-04-01T02:14:06.759Z,13.15
2023-04-01T02:16:37.540Z,13.16
2023-04-01T02:19:08.520Z,13.77
2023-04-01T02:21:36.608Z,14.25
2023-04-01T02:24:06.008Z,14.10
2023-04-01T02:26:33.018Z,13.28
2023-04-01T02:29:01.160Z,13.25
2023-04-01T02:31:28.255Z,14.33
2023-04-01T02:33:55.864Z,13.69
2023-04-01T02:36:22.815Z,13.22
2023-04-01T02:38:51.312Z,13.45
2023-04-01T02:41:18.189Z,13.40
2023-04-01T02:43:45.117Z,13.80
2023-04-01T02:46:12.064Z,13.76
2023-04-01T02:48:38.982Z,13.66
2023-04-01T02:51:06.051Z,14.09
2023-04-01T02:53:32.986Z,14.19
2023-04-01T02:55:59.832Z,13.62
2023-04-01T02:58:26.772Z,13.20
2023-04-01T03:00:53.689Z,12.69
2023-04-01T03:03:20.722Z,12.90
2023-04-01T03:05:47.648Z,12.69
2023-04-01T03:08:14.522Z,12.29
2023-04-01T03:10:41.454Z,12.20
2023-04-01T03:13:08.584Z,12.09
2023-04-01T03:15:35.493Z,12.02
2023-04-01T03:18:02.421Z,12.01
2023-04-01T03:20:29.465Z,12.19
2023-04-01T03:22:56.380Z,12.52
2023-04-01T03:25:23.361Z,12.59
2023-04-01T03:27:50.281Z,12.64
2023-04-01T03:30:17.361Z,12.92
2023-04-01T03:32:44.320Z,13.00
2023-04-01T03:35:11.506Z,13.18
2023-04-01T03:37:38.933Z,12.74
2023-04-01T03:40:06.498Z,12.83
2023-04-01T03:42:33.649Z,12.71
2023-04-01T03:45:00.770Z,12.95
2023-04-01T03:47:27.887Z,12.80
2023-04-01T03:49:54.851Z,12.74
2023-04-01T03:52:22.003Z,12.92
2023-04-01T03:54:48.930Z,12.65
2023-04-01T03:57:15.832Z,12.40
2023-04-01T03:59:42.776Z,12.94
2023-04-01T04:02:09.675Z,12.78
2023-04-01T04:04:36.763Z,12.53
2023-04-01T04:07:03.769Z,12.56
2023-04-01T04:09:32.650Z,12.66
2023-04-01T04:11:59.514Z,12.76
2023-04-01T04:14:26.515Z,12.74
2023-04-01T04:16:53.576Z,13.28
2023-04-01T04:19:20.497Z,13.44
2023-04-01T04:21:47.383Z,13.18
2023-04-01T04:24:14.229Z,13.31
2023-04-01T04:26:41.083Z,13.20
2023-04-01T04:29:08.088Z,13.10
2023-04-01T04:31:34.969Z,12.72
2023-04-01T04:34:04.832Z,13.07
2023-04-01T04:36:31.685Z,12.88
2023-04-01T04:38:59.245Z,12.84
2023-04-01T04:41:26.818Z,12.95
2023-04-01T04:43:56.210Z,12.90
2023-04-01T04:46:24.118Z,12.93
2023-04-01T04:48:51.242Z,12.93
2023-04-01T04:51:19.724Z,12.74
2023-04-01T04:53:47.224Z,13.06
2023-04-01T04:56:14.135Z,12.58
2023-04-01T04:58:41.384Z,12.68
2023-04-01T05:01:13.516Z,12.92
2023-04-01T05:03:40.839Z,12.87
2023-04-01T05:06:09.352Z,13.06
2023-04-01T05:08:36.725Z,13.42
2023-04-01T05:11:04.321Z,13.43
2023-04-01T05:13:31.339Z,13.20
2023-04-01T05:15:58.194Z,12.74
2023-04-01T05:18:25.243Z,13.15
2023-04-01T05:20:54.072Z,13.91
2023-04-01T05:23:22.607Z,13.94
2023-04-01T05:25:51.009Z,14.30
2023-04-01T05:28:18.236Z,13.89
2023-04-01T05:30:45.824Z,14.08
2023-04-01T05:33:14.055Z,14.34
2023-04-01T05:35:42.017Z,14.03
2023-04-01T05:38:09.004Z,13.75
2023-04-01T05:40:36.071Z,13.91
2023-04-01T05:43:03.053Z,14.18
2023-04-01T05:45:29.926Z,13.73
2023-04-01T05:47:56.848Z,14.15
2023-04-01T05:50:23.812Z,14.21
2023-04-01T05:52:50.867Z,14.03
2023-04-01T05:55:17.843Z,13.62
2023-04-01T05:57:47.107Z,13.80
2023-04-01T06:00:14.402Z,14.14
2023-04-01T06:02:43.093Z,14.17
2023-04-01T06:05:22.190Z,14.31
2023-04-01T06:07:49.484Z,14.06
2023-04-01T06:10:19.074Z,13.91
2023-04-01T06:12:58.569Z,14.24
2023-04-01T06:15:38.178Z,14.61
2023-04-01T06:18:27.454Z,14.79
2023-04-01T06:21:01.560Z,14.71
2023-04-01T06:23:40.389Z,14.99
2023-04-01T06:26:23.073Z,15.01
2023-04-01T06:29:15.713Z,15.16
2023-04-01T06:31:55.646Z,15.16
2023-04-01T06:34:39.209Z,14.88
2023-04-01T06:37:41.732Z,15.57
2023-04-01T06:40:11.295Z,15.83
2023-04-01T06:43:02.248Z,14.93
2023-04-01T06:45:54.208Z,15.25
2023-04-01T06:48:30.232Z,14.81
2023-04-01T06:51:23.029Z,14.92
2023-04-01T06:54:13.528Z,15.54
2023-04-01T06:56:43.805Z,15.98
2023-04-01T06:59:40.082Z,14.95
2023-04-01T07:02:27.349Z,15.94
2023-04-01T07:04:56.275Z,15.47
2023-04-01T07:07:45.888Z,16.08
2023-04-01T07:10:21.620Z,15.96
2023-04-01T07:12:52.816Z,15.66
2023-04-01T07:15:27.760Z,16.55
2023-04-01T07:18:08.622Z,16.11
2023-04-01T07:20:38.701Z,15.83
2023-04-01T07:23:14.614Z,16.34
2023-04-01T07:25:45.838Z,15.53
2023-04-01T07:28:15.246Z,15.90
2023-04-01T07:31:19.531Z,16.54
2023-04-01T07:34:14.331Z,16.16
2023-04-01T07:37:00.729Z,15.97
2023-04-01T07:39:45.849Z,16.12
2023-04-01T07:42:18.616Z,15.62
2023-04-01T07:45:07.910Z,15.53
2023-04-01T07:47:42.948Z,15.48
2023-04-01T07:50:35.885Z,15.79
2023-04-01T07:53:11.793Z,15.33
2023-04-01T07:56:17.195Z,15.48
2023-04-01T07:59:21.860Z,15.19
2023-04-01T08:02:19.553Z,14.79
2023-04-01T08:04:58.624Z,14.89
2023-04-01T08:07:31.373Z,15.48
2023-04-01T08:10:12.770Z,15.00
2023-04-01T08:12:58.747Z,15.18
2023-04-01T08:15:57.843Z,16.75
2023-04-01T08:18:55.281Z,16.70
2023-04-01T08:21:25.806Z,15.85
2023-04-01T08:23:54.194Z,15.43
2023-04-01T08:26:43.907Z,16.26
2023-04-01T08:29:22.043Z,16.26
2023-04-01T08:32:12.211Z,16.78
2023-04-01T08:34:42.801Z,16.44
2023-04-01T08:37:13.347Z,16.72
2023-04-01T08:39:53.293Z,16.42
2023-04-01T08:42:35.348Z,17.32
2023-04-01T08:45:39.724Z,16.62
2023-04-01T08:48:09.971Z,16.42
2023-04-01T08:51:07.641Z,16.29
2023-04-01T08:54:07.777Z,16.23
2023-04-01T08:56:53.948Z,16.50
2023-04-01T08:59:54.069Z,16.13
2023-04-01T09:02:35.972Z,16.86
2023-04-01T09:05:03.390Z,16.58
2023-04-01T09:07:33.883Z,17.55
2023-04-01T09:10:26.040Z,18.33
2023-04-01T09:13:11.152Z,17.96
2023-04-01T09:16:07.823Z,18.11
2023-04-01T09:18:56.995Z,18.24
2023-04-01T09:21:30.385Z,18.21
2023-04-01T09:24:24.986Z,18.29
2023-04-01T09:27:19.372Z,19.80
2023-04-01T09:30:05.287Z,19.06
2023-04-01T09:32:49.294Z,19.69
2023-04-01T09:35:47.936Z,18.94
2023-04-01T09:38:31.967Z,17.41
2023-04-01T09:41:03.581Z,16.79
2023-04-01T09:43:48.581Z,17.30
2023-04-01T09:46:46.775Z,17.52
2023-04-01T09:49:42.792Z,18.17
2023-04-01T09:52:52.978Z,18.81
2023-04-01T09:55:47.211Z,18.75
2023-04-01T09:58:35.417Z,19.32
2023-04-01T10:01:16.899Z,18.51
2023-04-01T10:04:02.469Z,18.56
2023-04-01T10:07:10.304Z,18.88
2023-04-01T10:10:14.281Z,18.50
2023-04-01T10:12:53.093Z,17.83
2023-04-01T10:16:05.289Z,17.59
2023-04-01T10:18:58.198Z,16.35
2023-04-01T10:21:55.178Z,15.82
2023-04-01T10:24:32.077Z,16.98
2023-04-01T10:27:21.746Z,16.82
2023-04-01T10:30:15.412Z,17.01
2023-04-01T10:33:03.284Z,17.30
2023-04-01T10:36:00.784Z,17.20
2023-04-01T10:38:51.951Z,16.51
2023-04-01T10:41:34.042Z,16.97
2023-04-01T10:44:27.854Z,16.88
2023-04-01T10:47:16.584Z,16.59
2023-04-01T10:49:46.247Z,16.82
2023-04-01T10:52:25.153Z,16.85
2023-04-01T10:55:20.799Z,18.16
2023-04-01T10:58:24.209Z,17.81
2023-04-01T11:01:18.437Z,18.08
2023-04-01T11:04:27.223Z,18.27
2023-04-01T11:07:17.629Z,18.65
2023-04-01T11:09:50.370Z,19.15
2023-04-01T11:12:29.237Z,17.71
2023-04-01T11:15:17.353Z,17.28
2023-04-01T11:18:13.668Z,17.16
2023-04-01T11:21:28.248Z,17.37
2023-04-01T11:24:11.302Z,17.99
2023-04-01T11:26:56.439Z,18.47
2023-04-01T11:29:35.497Z,17.72
2023-04-01T11:32:13.761Z,17.65
2023-04-01T11:34:46.695Z,17.47
2023-04-01T11:37:35.253Z,17.18
2023-04-01T11:40:30.258Z,16.60
2023-04-01T11:43:04.078Z,16.60
2023-04-01T11:45:41.483Z,16.59
2023-04-01T11:48:33.692Z,16.91
2023-04-01T11:51:38.387Z,17.76
2023-04-01T11:54:10.924Z,18.42
2023-04-01T11:56:46.016Z,17.06
2023-04-01T11:59:52.087Z,17.56
2023-04-01T12:02:53.011Z,18.18
2023-04-01T12:05:22.683Z,18.83
2023-04-01T12:07:57.055Z,18.81
2023-04-01T12:10:51.728Z,19.17
2023-04-01T12:13:46.873Z,18.21
2023-04-01T12:16:43.306Z,18.37
2023-04-01T12:19:37.934Z,18.48
2023-04-01T12:22:32.511Z,18.75
2023-04-01T12:25:06.178Z,18.75
2023-04-01T12:28:10.720Z,19.25
2023-04-01T12:30:51.984Z,20.55
2023-04-01T12:33:45.259Z,20.45
2023-04-01T12:36:40.493Z,19.31
2023-04-01T12:39:36.422Z,20.12
2023-04-01T12:42:32.082Z,19.42
2023-04-01T12:45:33.861Z,19.13
2023-04-01T12:48:35.119Z,18.75
2023-04-01T12:51:21.985Z,17.38
2023-04-01T12:53:51.951Z,18.09
2023-04-01T12:56:39.104Z,17.76
2023-04-01T12:59:27.807Z,18.07
2023-04-01T13:02:21.249Z,17.68
2023-04-01T13:05:14.001Z,17.39
2023-04-01T13:07:58.096Z,18.08
2023-04-01T13:10:52.138Z,18.78
2023-04-01T13:14:15.918Z,19.42
2023-04-01T13:17:24.673Z,19.51
2023-04-01T13:20:04.886Z,18.86
2023-04-01T13:22:57.863Z,19.16
2023-04-01T13:25:32.349Z,19.07
2023-04-01T13:28:21.804Z,19.17
2023-04-01T13:30:48.604Z,19.28
2023-04-01T13:33:33.654Z,19.49
2023-04-01T13:36:21.724Z,18.93
2023-04-01T13:39:06.372Z,18.62
2023-04-01T13:41:53.498Z,18.31
2023-04-01T13:44:33.150Z,17.45
2023-04-01T13:47:18.558Z,18.21
2023-04-01T13:50:00.884Z,18.04
2023-04-01T13:52:49.549Z,17.85
2023-04-01T13:55:55.235Z,17.97
2023-04-01T13:58:47.766Z,18.19
2023-04-01T14:01:20.834Z,19.01
2023-04-01T14:04:09.081Z,18.80
2023-04-01T14:06:42.656Z,18.26
2023-04-01T14:09:34.444Z,17.55
2023-04-01T14:12:10.811Z,17.69
2023-04-01T14:15:23.255Z,17.98
2023-04-01T14:18:19.013Z,18.05
2023-04-01T14:21:20.136Z,18.58
2023-04-01T14:24:20.163Z,18.57
2023-04-01T14:26:59.032Z,18.83
2023-04-01T14:29:34.781Z,18.51
2023-04-01T14:32:01.550Z,17.61
2023-04-01T14:34:46.334Z,17.10
2023-04-01T14:37:40.798Z,18.17
2023-04-01T14:40:30.272Z,18.68
2023-04-01T14:43:18.551Z,18.40
2023-04-01T14:46:10.970Z,18.84
2023-04-01T14:49:16.853Z,17.96
2023-04-01T14:51:43.991Z,17.66
2023-04-01T14:54:23.772Z,17.26
2023-04-01T14:56:54.103Z,18.33
2023-04-01T14:59:23.965Z,18.13
2023-04-01T15:02:25.716Z,18.04
2023-04-01T15:05:17.944Z,18.81
2023-04-01T15:08:03.135Z,18.36
2023-04-01T15:10:33.209Z,18.48
2023-04-01T15:13:06.669Z,18.83
2023-04-01T15:15:48.886Z,18.52
2023-04-01T15:18:40.586Z,18.54
2023-04-01T15:21:13.525Z,18.69
2023-04-01T15:24:02.148Z,18.53
2023-04-01T15:26:59.685Z,18.29
2023-04-01T15:29:32.417Z,17.88
2023-04-01T15:32:23.194Z,18.01
2023-04-01T15:35:14.886Z,18.48
2023-04-01T15:37:57.724Z,18.10
2023-04-01T15:40:42.465Z,18.93
2023-04-01T15:43:24.499Z,18.07
2023-04-01T15:46:00.689Z,17.92
2023-04-01T15:48:50.557Z,17.57
2023-04-01T15:51:23.347Z,17.57
2023-04-01T15:54:27.797Z,17.84
2023-04-01T15:57:03.535Z,17.86
2023-04-01T15:59:53.155Z,18.27
2023-04-01T16:02:27.261Z,17.91
2023-04-01T16:05:13.098Z,17.21
2023-04-01T16:07:49.699Z,17.78
2023-04-01T16:10:35.596Z,17.76
2023-04-01T16:13:25.933Z,17.90
2023-04-01T16:16:20.611Z,17.26
2023-04-01T16:19:14.723Z,17.05
2023-04-01T16:21:54.855Z,17.08
2023-04-01T16:24:40.855Z,17.18
2023-04-01T16:27:23.112Z,17.97
2023-04-01T16:29:52.551Z,17.22
2023-04-01T16:32:55.972Z,17.20
2023-04-01T16:35:41.831Z,16.93
2023-04-01T16:38:31.404Z,17.13
2023-04-01T16:41:04.599Z,17.52
2023-04-01T16:43:39.877Z,17.80
2023-04-01T16:46:28.082Z,17.71
2023-04-01T16:49:13.893Z,17.81
2023-04-01T16:51:58.644Z,18.29
2023-04-01T16:54:32.609Z,17.81
2023-04-01T16:58:04.441Z,17.89
2023-04-01T17:00:42.968Z,17.41
2023-04-01T17:03:13.209Z,17.39
2023-04-01T17:05:55.522Z,17.20
2023-04-01T17:08:37.632Z,17.68
2023-04-01T17:11:14.946Z,17.92
2023-04-01T17:14:02.156Z,18.23
2023-04-01T17:16:47.248Z,17.64
2023-04-01T17:19:35.717Z,18.56
2023-04-01T17:22:14.721Z,17.92
2023-04-01T17:25:10.094Z,18.80
2023-04-01T17:27:49.616Z,18.28
2023-04-01T17:31:07.547Z,18.30
2023-04-01T17:33:47.252Z,18.37
2023-04-01T17:36:29.298Z,17.83
2023-04-01T17:39:18.099Z,17.41
2023-04-01T17:42:17.306Z,16.83
2023-04-01T17:45:03.013Z,16.68
2023-04-01T17:47:29.901Z,17.36
2023-04-01T17:50:04.264Z,17.37
2023-04-01T17:52:47.534Z,17.06
2023-04-01T17:55:42.273Z,16.40
2023-04-01T17:58:23.904Z,17.16
2023-04-01T18:01:12.611Z,16.88
2023-04-01T18:04:04.107Z,16.39
2023-04-01T18:06:37.496Z,15.85
2023-04-01T18:09:31.520Z,15.98
2023-04-01T18:12:15.587Z,16.56
2023-04-01T18:15:04.183Z,16.28
2023-04-01T18:17:56.185Z,16.12
2023-04-01T18:20:30.253Z,15.54
2023-04-01T18:23:13.872Z,15.71
2023-04-01T18:25:45.350Z,16.22
2023-04-01T18:28:36.328Z,16.65
2023-04-01T18:31:03.103Z,17.45
2023-04-01T18:33:51.847Z,17.76
2023-04-01T18:36:41.973Z,17.43
2023-04-01T18:39:13.034Z,17.20
2023-04-01T18:42:12.279Z,17.52
2023-04-01T18:44:52.044Z,17.27
2023-04-01T18:47:31.637Z,16.03
2023-04-01T18:50:35.857Z,15.46
2023-04-01T18:53:37.583Z,15.00
2023-04-01T18:56:07.454Z,15.06
2023-04-01T18:58:38.623Z,15.08
2023-04-01T19:01:40.991Z,15.50
2023-04-01T19:04:32.081Z,15.45
2023-04-01T19:07:03.071Z,15.34
2023-04-01T19:09:45.760Z,15.49
2023-04-01T19:12:25.143Z,15.57
2023-04-01T19:15:25.273Z,15.59
2023-04-01T19:18:03.183Z,15.29
2023-04-01T19:20:49.443Z,15.24
2023-04-01T19:23:36.284Z,14.93
2023-04-01T19:26:06.589Z,15.34
2023-04-01T19:28:41.602Z,15.04
2023-04-01T19:31:30.090Z,14.59
2023-04-01T19:34:28.902Z,14.58
2023-04-01T19:37:00.497Z,15.40
2023-04-01T19:39:56.579Z,14.86
2023-04-01T19:42:39.884Z,15.00
2023-04-01T19:45:44.508Z,15.01
2023-04-01T19:48:39.770Z,15.60
2023-04-01T19:51:34.748Z,15.16
2023-04-01T19:54:16.778Z,15.40
2023-04-01T19:57:02.473Z,15.71
2023-04-01T19:59:47.956Z,15.26
2023-04-01T20:03:02.922Z,16.16
2023-04-01T20:05:41.857Z,15.89
2023-04-01T20:08:14.175Z,16.15
2023-04-01T20:10:49.995Z,15.94
2023-04-01T20:13:29.784Z,15.40
2023-04-01T20:16:02.347Z,15.74
2023-04-01T20:18:42.986Z,15.31
2023-04-01T20:21:16.139Z,15.64
2023-04-01T20:23:59.652Z,15.49
2023-04-01T20:26:31.162Z,14.92
2023-04-01T20:29:19.121Z,15.15
2023-04-01T20:32:06.246Z,15.42
2023-04-01T20:35:23.697Z,15.05
2023-04-01T20:38:05.043Z,14.46
2023-04-01T20:40:37.330Z,14.95
2023-04-01T20:43:21.458Z,14.36
2023-04-01T20:46:00.237Z,14.64
2023-04-01T20:49:04.542Z,14.84
2023-04-01T20:51:35.810Z,15.00
2023-04-01T20:54:28.136Z,14.22
2023-04-01T20:57:07.045Z,14.94
2023-04-01T20:59:53.964Z,14.49
2023-04-01T21:02:38.160Z,14.43
2023-04-01T21:05:23.719Z,14.55
2023-04-01T21:08:26.159Z,13.75
2023-04-01T21:11:16.905Z,13.55
2023-04-01T21:14:21.526Z,13.55
2023-04-01T21:17:10.085Z,14.25
2023-04-01T21:19:50.267Z,13.58
2023-04-01T21:22:48.143Z,13.75
2023-04-01T21:25:32.140Z,13.70
2023-04-01T21:28:22.596Z,13.43
2023-04-01T21:30:54.322Z,13.64
2023-04-01T21:33:46.228Z,13.49
2023-04-01T21:36:52.319Z,13.50
2023-04-01T21:39:43.972Z,13.54
2023-04-01T21:42:47.149Z,13.42
2023-04-01T21:45:59.068Z,13.70
2023-04-01T21:48:43.925Z,13.98
2023-04-01T21:51:32.204Z,13.90
2023-04-01T21:54:41.852Z,13.57
2023-04-01T21:57:23.906Z,14.02
2023-04-01T22:00:17.550Z,13.92
2023-04-01T22:03:27.434Z,13.29
2023-04-01T22:05:54.813Z,13.05
2023-04-01T22:08:31.703Z,13.12
2023-04-01T22:11:22.874Z,13.93
2023-04-01T22:13:55.513Z,14.09
2023-04-01T22:16:33.388Z,13.43
2023-04-01T22:19:15.554Z,12.90
2023-04-01T22:22:04.593Z,12.97
2023-04-01T22:24:59.404Z,13.73
2023-04-01T22:27:38.209Z,13.89
2023-04-01T22:30:13.373Z,14.07
2023-04-01T22:32:56.933Z,13.65
2023-04-01T22:35:33.353Z,13.66
2023-04-01T22:38:20.101Z,13.48
2023-04-01T22:41:38.181Z,13.85
2023-04-01T22:44:05.162Z,13.67
2023-04-01T22:46:47.283Z,13.36
2023-04-01T22:49:23.642Z,13.30
2023-04-01T22:51:56.682Z,13.59
2023-04-01T22:54:50.777Z,14.08
2023-04-01T22:57:41.842Z,14.24
2023-04-01T23:00:16.497Z,13.37
2023-04-01T23:03:20.028Z,13.82
2023-04-01T23:05:57.577Z,14.35
2023-04-01T23:09:10.299Z,13.73
2023-04-01T23:11:46.329Z,13.46
2023-04-01T23:14:24.400Z,13.66
2023-04-01T23:17:03.991Z,13.29
2023-04-01T23:19:43.083Z,14.10
2023-04-01T23:22:52.039Z,14.22
2023-04-01T23:25:21.747Z,13.82
2023-04-01T23:28:15.665Z,13.61
2023-04-01T23:30:42.628Z,13.79
2023-04-01T23:33:21.522Z,14.22
2023-04-01T23:36:07.549Z,13.84
2023-04-01T23:38:37.673Z,13.59
2023-04-01T23:41:05.811Z,14.09
2023-04-01T23:43:36.040Z,14.34
2023-04-01T23:46:04.983Z,13.05
2023-04-01T23:48:40.132Z,13.73
2023-04-01T23:51:20.091Z,13.16
2023-04-01T23:53:48.600Z,13.36
2023-04-01T23:56:19.189Z,13.74
2023-04-01T23:58:49.730Z,13.36
